Suffolk, Virginia
Current Conditions -  °F | °C
As of 9:55 PM on Tuesday 21 Oct 2014 (Local Time) from KPVG Reporting Station
Overcast Overcast  
Wind Chill: 55°   Ceiling: 12000
Heat Index: 55°   Visibility: 10mi
Dew Point: 54°   Wind: 5mph
Humidity: 94%   Direction: 290°WNW
Pressure: 29.87"   Gusts: NA
Location:  36.73°N, 76.59°W
Report Text: KPVG 220155Z AUTO 29004KT 10SM OVC120 13/12 A2987 RMK AO1
Loading
Personal Weather Stations






























Interactive Weather Map
Tropical Storm Tracking
New forecast layout! Learn more

10-Day Weather Forecast

Advertisements
Track Severe Weather on mobile